ELY191 LLBG-UACC
Flight info
| Callsign | ELY191 |
|---|---|
| Flight time | N/A |
| Altitude | 40000 |
| Route | SUVAS L53 ANIDE DCT RIPLI DCT PEREN UN133 ATFIR DCT LOMOS DCT KENIN DCT KELEL/N0477F410 DCT LOGDA DCT VABER DCT LAUGA DCT IGORO/K0883F410 M864 INKEB L94 UNORO T788 NAMUD L994 DIDAL DIDAL1G |
| Aircraft | B772/H-SDE2E3FGHIJ1J4J5LM1OP2RVWXY/LB1D1 |
Departure
| Time | N/A |
|---|---|
| Airport | Ben Gurion International Airport (LLBG) |
Arrival
| Time | 2026-04-30 21:13 |
|---|---|
| Airport | Nursultan Nazarbayev International Airport (UACC) |
| Time | Latitude | Longitude | Altitude | Speed | Heading |
|---|---|---|---|---|---|
| 2026-04-30 14:55 | 37.30921 | 25.35091 | 40993 ft | 443 kts | 328° |
| 2026-04-30 14:56 | 37.36770 | 25.32424 | 40990 ft | 450 kts | 337° |
| 2026-04-30 14:57 | 37.45760 | 25.28959 | 40993 ft | 450 kts | 337° |
| 2026-04-30 14:58 | 37.57705 | 25.24208 | 40990 ft | 449 kts | 337° |
| 2026-04-30 14:58 | 37.66634 | 25.20598 | 40987 ft | 449 kts | 337° |
| 2026-04-30 15:00 | 37.81498 | 25.14570 | 40991 ft | 449 kts | 337° |
| 2026-04-30 15:01 | 37.93396 | 25.09729 | 40991 ft | 449 kts | 337° |
| 2026-04-30 15:01 | 38.02325 | 25.06085 | 40991 ft | 450 kts | 336° |
| 2026-04-30 15:02 | 38.08288 | 25.03646 | 40991 ft | 451 kts | 337° |
| 2026-04-30 15:03 | 38.23241 | 24.97513 | 40991 ft | 452 kts | 337° |
| 2026-04-30 15:04 | 38.29200 | 24.95064 | 40820 ft | 448 kts | 337° |
| 2026-04-30 15:04 | 38.38116 | 24.91385 | 40206 ft | 452 kts | 337° |
| 2026-04-30 15:06 | 38.53168 | 24.85155 | 40210 ft | 458 kts | 337° |
| 2026-04-30 15:07 | 38.65322 | 24.80107 | 40211 ft | 460 kts | 337° |
| 2026-04-30 15:08 | 38.77532 | 24.75018 | 40213 ft | 462 kts | 336° |
| 2026-04-30 15:08 | 38.86590 | 24.71238 | 40022 ft | 444 kts | 336° |
| 2026-04-30 15:09 | 38.92382 | 24.68813 | 40004 ft | 442 kts | 336° |
| 2026-04-30 15:10 | 39.04208 | 24.63830 | 39993 ft | 449 kts | 337° |
| 2026-04-30 15:11 | 39.21967 | 24.56335 | 39988 ft | 446 kts | 336° |
| 2026-04-30 15:13 | 39.36646 | 24.50113 | 39999 ft | 443 kts | 336° |
| 2026-04-30 15:14 | 39.57151 | 24.41368 | 39998 ft | 444 kts | 336° |
| 2026-04-30 15:17 | 39.83518 | 24.30045 | 40009 ft | 443 kts | 336° |
| 2026-04-30 15:19 | 40.06872 | 24.19938 | 40019 ft | 442 kts | 336° |
| 2026-04-30 17:39 | 55.89742 | 25.93582 | 40279 ft | 430 kts | 39° |
| 2026-04-30 17:41 | 56.01314 | 26.30919 | 40280 ft | 443 kts | 66° |
| 2026-04-30 17:42 | 56.03280 | 26.41360 | 40275 ft | 443 kts | 66° |
| 2026-04-30 17:43 | 56.08252 | 26.67471 | 40279 ft | 444 kts | 66° |
| 2026-04-30 17:44 | 56.14171 | 26.98968 | 40279 ft | 446 kts | 67° |
| 2026-04-30 17:47 | 56.22661 | 27.45123 | 40260 ft | 452 kts | 68° |
| 2026-04-30 17:48 | 56.29446 | 27.82819 | 40258 ft | 453 kts | 68° |
| 2026-04-30 17:50 | 56.35375 | 28.26961 | 40225 ft | 466 kts | 89° |
| 2026-04-30 17:52 | 56.32186 | 28.61812 | 40226 ft | 470 kts | 95° |
| 2026-04-30 17:54 | 56.27253 | 29.14069 | 40231 ft | 471 kts | 95° |
| 2026-04-30 17:56 | 56.22760 | 29.60576 | 40221 ft | 472 kts | 96° |
| 2026-04-30 17:58 | 56.19276 | 29.95355 | 40221 ft | 473 kts | 96° |
| 2026-04-30 18:00 | 56.14468 | 30.41757 | 40225 ft | 473 kts | 97° |
| 2026-04-30 18:01 | 56.11346 | 30.70806 | 40222 ft | 474 kts | 97° |
| 2026-04-30 18:02 | 56.07495 | 31.05568 | 40220 ft | 475 kts | 97° |
| 2026-04-30 18:04 | 56.03662 | 31.40391 | 40222 ft | 476 kts | 98° |
| 2026-04-30 18:06 | 55.98353 | 31.87040 | 41069 ft | 482 kts | 99° |
| 2026-04-30 18:07 | 55.95597 | 32.10493 | 41213 ft | 482 kts | 99° |
| 2026-04-30 18:08 | 55.93507 | 32.27978 | 41222 ft | 480 kts | 99° |
| 2026-04-30 18:10 | 55.87819 | 32.74555 | 41220 ft | 482 kts | 99° |
| 2026-04-30 18:11 | 55.86023 | 33.15630 | 41228 ft | 476 kts | 84° |
| 2026-04-30 18:13 | 55.86956 | 33.45054 | 41220 ft | 476 kts | 84° |
| 2026-04-30 18:14 | 55.87755 | 33.74492 | 41223 ft | 476 kts | 85° |
| 2026-04-30 18:15 | 55.88627 | 34.09810 | 41220 ft | 476 kts | 85° |
| 2026-04-30 18:16 | 55.89154 | 34.33360 | 41222 ft | 476 kts | 85° |
| 2026-04-30 18:17 | 55.89392 | 34.45128 | 41220 ft | 476 kts | 85° |
| 2026-04-30 18:18 | 55.89720 | 34.62825 | 41221 ft | 477 kts | 86° |
| 2026-04-30 18:18 | 55.89928 | 34.74649 | 41221 ft | 477 kts | 86° |
| 2026-04-30 18:19 | 55.90124 | 34.86478 | 41223 ft | 478 kts | 86° |
| 2026-04-30 18:19 | 55.90312 | 34.98341 | 41220 ft | 479 kts | 86° |
| 2026-04-30 18:20 | 55.90488 | 35.10132 | 41221 ft | 480 kts | 86° |
| 2026-04-30 18:20 | 55.90662 | 35.22017 | 41223 ft | 480 kts | 86° |
| 2026-04-30 18:21 | 55.90827 | 35.33917 | 41221 ft | 481 kts | 86° |
| 2026-04-30 18:21 | 55.90980 | 35.45834 | 41223 ft | 481 kts | 87° |
| 2026-04-30 18:22 | 55.91122 | 35.57754 | 41221 ft | 481 kts | 87° |
| 2026-04-30 18:22 | 55.91314 | 35.75637 | 41220 ft | 481 kts | 87° |
| 2026-04-30 18:23 | 55.91490 | 35.87548 | 41220 ft | 480 kts | 84° |
| 2026-04-30 18:23 | 55.92001 | 35.99407 | 41214 ft | 480 kts | 83° |
| 2026-04-30 18:24 | 55.92833 | 36.17184 | 41213 ft | 480 kts | 83° |
| 2026-04-30 18:25 | 55.93347 | 36.29040 | 41212 ft | 480 kts | 84° |
| 2026-04-30 18:25 | 55.94081 | 36.46844 | 41212 ft | 480 kts | 84° |
| 2026-04-30 18:26 | 55.94791 | 36.64670 | 41212 ft | 480 kts | 84° |
| 2026-04-30 18:27 | 55.95477 | 36.82506 | 41213 ft | 481 kts | 84° |
| 2026-04-30 18:28 | 55.96138 | 37.00387 | 41213 ft | 482 kts | 85° |
| 2026-04-30 18:28 | 55.96772 | 37.18217 | 41212 ft | 482 kts | 85° |
| 2026-04-30 18:29 | 55.97553 | 37.42128 | 41212 ft | 482 kts | 85° |
| 2026-04-30 18:30 | 55.98174 | 37.64115 | 41214 ft | 482 kts | 86° |
| 2026-04-30 18:31 | 55.98669 | 37.82065 | 41213 ft | 482 kts | 86° |
| 2026-04-30 18:32 | 55.99178 | 38.00001 | 41212 ft | 482 kts | 86° |
| 2026-04-30 18:33 | 55.99663 | 38.17936 | 41211 ft | 482 kts | 86° |
| 2026-04-30 18:33 | 56.00118 | 38.35875 | 41212 ft | 482 kts | 86° |
| 2026-04-30 18:34 | 56.00545 | 38.53748 | 41212 ft | 482 kts | 86° |
| 2026-04-30 18:35 | 56.00816 | 38.65706 | 41212 ft | 482 kts | 86° |
| 2026-04-30 18:35 | 56.01077 | 38.77687 | 41212 ft | 482 kts | 86° |
| 2026-04-30 18:36 | 56.01445 | 38.95652 | 41212 ft | 483 kts | 87° |
| 2026-04-30 18:37 | 56.01786 | 39.13579 | 41202 ft | 483 kts | 87° |
| 2026-04-30 18:37 | 56.02000 | 39.25583 | 41203 ft | 483 kts | 87° |
| 2026-04-30 18:38 | 56.02203 | 39.37600 | 41204 ft | 483 kts | 88° |
| 2026-04-30 18:38 | 56.02395 | 39.49612 | 41203 ft | 484 kts | 88° |
| 2026-04-30 18:39 | 56.02576 | 39.61645 | 41203 ft | 484 kts | 88° |
| 2026-04-30 18:39 | 56.02791 | 39.73678 | 41195 ft | 484 kts | 87° |
| 2026-04-30 18:40 | 56.03015 | 39.85706 | 41194 ft | 484 kts | 88° |
| 2026-04-30 18:40 | 56.03182 | 39.97753 | 41193 ft | 484 kts | 88° |
| 2026-04-30 18:41 | 56.03334 | 40.09788 | 41194 ft | 484 kts | 88° |
| 2026-04-30 18:41 | 56.03480 | 40.21837 | 41194 ft | 484 kts | 88° |
| 2026-04-30 18:42 | 56.03618 | 40.33871 | 41185 ft | 484 kts | 88° |
| 2026-04-30 18:42 | 56.03802 | 40.51932 | 41185 ft | 484 kts | 89° |
| 2026-04-30 18:45 | 56.04234 | 41.18269 | 41176 ft | 486 kts | 89° |
| 2026-04-30 18:46 | 56.04273 | 41.30361 | 41176 ft | 486 kts | 90° |
| 2026-04-30 18:46 | 56.04300 | 41.42378 | 41176 ft | 487 kts | 90° |
| 2026-04-30 18:47 | 56.04316 | 41.54481 | 41178 ft | 487 kts | 90° |
| 2026-04-30 18:47 | 56.04319 | 41.66593 | 41165 ft | 488 kts | 90° |
| 2026-04-30 18:48 | 56.04311 | 41.78726 | 41167 ft | 488 kts | 90° |
| 2026-04-30 18:48 | 56.04291 | 41.90861 | 41165 ft | 488 kts | 90° |
| 2026-04-30 18:49 | 56.04259 | 42.02992 | 41166 ft | 488 kts | 90° |
| 2026-04-30 18:49 | 56.04215 | 42.15112 | 41166 ft | 487 kts | 91° |
| 2026-04-30 18:50 | 56.04159 | 42.27237 | 41166 ft | 487 kts | 91° |
| 2026-04-30 18:50 | 56.04092 | 42.39352 | 41168 ft | 487 kts | 91° |
| 2026-04-30 18:51 | 56.04015 | 42.51469 | 41158 ft | 487 kts | 91° |
| 2026-04-30 18:51 | 56.03901 | 42.63582 | 41157 ft | 487 kts | 91° |
| 2026-04-30 18:52 | 56.03750 | 42.75707 | 41157 ft | 487 kts | 92° |
| 2026-04-30 18:52 | 56.03592 | 42.87747 | 41156 ft | 487 kts | 92° |
| 2026-04-30 18:53 | 56.03426 | 42.99861 | 41158 ft | 488 kts | 92° |
| 2026-04-30 18:53 | 56.03249 | 43.11981 | 41157 ft | 488 kts | 92° |
| 2026-04-30 18:54 | 56.03061 | 43.24114 | 41157 ft | 488 kts | 92° |
| 2026-04-30 18:54 | 56.03018 | 43.36243 | 41155 ft | 489 kts | 86° |
| 2026-04-30 18:55 | 56.03806 | 43.48313 | 41162 ft | 489 kts | 83° |
| 2026-04-30 18:55 | 56.05104 | 43.66434 | 41157 ft | 490 kts | 84° |
| 2026-04-30 18:56 | 56.06283 | 43.84197 | 41156 ft | 490 kts | 84° |
| 2026-04-30 18:57 | 56.07448 | 44.02382 | 41157 ft | 490 kts | 84° |
| 2026-04-30 18:57 | 56.08212 | 44.14515 | 41161 ft | 490 kts | 84° |
| 2026-04-30 18:58 | 56.09337 | 44.32715 | 41158 ft | 490 kts | 85° |
| 2026-04-30 18:59 | 56.10435 | 44.50913 | 41158 ft | 490 kts | 85° |
| 2026-04-30 19:00 | 56.11208 | 44.75204 | 41160 ft | 488 kts | 94° |
| 2026-04-30 19:01 | 56.10627 | 44.99541 | 41158 ft | 489 kts | 93° |
| 2026-04-30 19:02 | 56.10215 | 45.17801 | 41153 ft | 489 kts | 94° |
| 2026-04-30 19:03 | 56.09608 | 45.42101 | 41137 ft | 490 kts | 94° |
| 2026-04-30 19:04 | 56.08957 | 45.66484 | 41139 ft | 490 kts | 95° |
| 2026-04-30 19:05 | 56.08258 | 45.90858 | 41138 ft | 490 kts | 95° |
| 2026-04-30 19:06 | 56.07511 | 46.15225 | 41132 ft | 490 kts | 95° |
| 2026-04-30 19:06 | 56.06921 | 46.33488 | 41131 ft | 490 kts | 95° |
| 2026-04-30 19:07 | 56.05945 | 46.51638 | 41135 ft | 487 kts | 104° |
| 2026-04-30 19:08 | 56.01540 | 46.74291 | 41132 ft | 484 kts | 114° |
| 2026-04-30 19:09 | 55.97880 | 46.91111 | 41132 ft | 484 kts | 114° |
| 2026-04-30 19:09 | 55.95458 | 47.02331 | 41125 ft | 484 kts | 114° |
| 2026-04-30 19:10 | 55.91107 | 47.25079 | 41136 ft | 487 kts | 107° |
| 2026-04-30 19:11 | 55.88637 | 47.42645 | 41130 ft | 487 kts | 107° |
| 2026-04-30 19:12 | 55.86953 | 47.54326 | 41130 ft | 487 kts | 107° |
| 2026-04-30 19:12 | 55.85236 | 47.65996 | 41132 ft | 487 kts | 108° |
| 2026-04-30 19:13 | 55.81755 | 47.89291 | 41127 ft | 487 kts | 108° |
| 2026-04-30 19:14 | 55.80001 | 48.00914 | 41133 ft | 487 kts | 108° |
| 2026-04-30 19:14 | 55.78246 | 48.12463 | 41129 ft | 487 kts | 108° |
| 2026-04-30 19:15 | 55.76460 | 48.24143 | 41130 ft | 487 kts | 108° |
| 2026-04-30 19:15 | 55.73790 | 48.41444 | 41129 ft | 487 kts | 108° |
| 2026-04-30 19:16 | 55.71987 | 48.53019 | 41130 ft | 487 kts | 109° |
| 2026-04-30 19:17 | 55.69264 | 48.70358 | 41130 ft | 486 kts | 109° |
| 2026-04-30 19:17 | 55.66520 | 48.87653 | 41130 ft | 486 kts | 109° |
| 2026-04-30 19:18 | 55.64067 | 49.02965 | 41130 ft | 485 kts | 109° |
| 2026-04-30 19:19 | 55.62212 | 49.14448 | 41127 ft | 485 kts | 109° |
| 2026-04-30 19:19 | 55.59412 | 49.31643 | 41129 ft | 485 kts | 110° |
| 2026-04-30 19:20 | 55.57534 | 49.43079 | 41129 ft | 484 kts | 110° |
| 2026-04-30 19:21 | 55.54698 | 49.60209 | 41127 ft | 484 kts | 110° |
| 2026-04-30 19:22 | 55.50885 | 49.82977 | 41128 ft | 483 kts | 110° |
| 2026-04-30 19:23 | 55.45092 | 50.17016 | 41131 ft | 483 kts | 111° |
| 2026-04-30 19:24 | 55.42156 | 50.34017 | 41130 ft | 483 kts | 111° |
| 2026-04-30 19:25 | 55.37213 | 50.62288 | 41130 ft | 484 kts | 111° |
| 2026-04-30 19:26 | 55.33205 | 50.84887 | 41131 ft | 485 kts | 111° |
| 2026-04-30 19:27 | 55.30170 | 51.01824 | 41131 ft | 485 kts | 111° |
| 2026-04-30 19:28 | 55.27109 | 51.18743 | 41128 ft | 485 kts | 112° |
| 2026-04-30 19:29 | 55.22992 | 51.41256 | 41132 ft | 485 kts | 112° |
| 2026-04-30 19:30 | 55.18847 | 51.63656 | 41132 ft | 485 kts | 112° |
| 2026-04-30 19:31 | 55.14651 | 51.86059 | 41127 ft | 484 kts | 112° |
| 2026-04-30 19:31 | 55.11479 | 52.02818 | 41130 ft | 484 kts | 112° |
| 2026-04-30 19:32 | 55.09353 | 52.13969 | 41135 ft | 484 kts | 113° |
| 2026-04-30 19:32 | 55.07218 | 52.25107 | 41130 ft | 484 kts | 113° |
| 2026-04-30 19:33 | 55.05070 | 52.36240 | 41130 ft | 484 kts | 113° |
| 2026-04-30 19:33 | 55.02915 | 52.47351 | 41133 ft | 484 kts | 113° |
| 2026-04-30 19:34 | 55.00748 | 52.58458 | 41128 ft | 484 kts | 113° |
| 2026-04-30 19:35 | 54.97475 | 52.75110 | 41130 ft | 484 kts | 113° |
| 2026-04-30 19:35 | 54.95283 | 52.86187 | 41122 ft | 484 kts | 114° |
| 2026-04-30 19:36 | 54.93082 | 52.97243 | 41114 ft | 484 kts | 114° |
| 2026-04-30 19:36 | 54.89762 | 53.13806 | 41125 ft | 484 kts | 114° |
| 2026-04-30 19:37 | 54.87536 | 53.24832 | 41125 ft | 484 kts | 114° |
| 2026-04-30 19:37 | 54.85301 | 53.35845 | 41106 ft | 484 kts | 114° |
| 2026-04-30 19:38 | 54.83057 | 53.46839 | 41113 ft | 483 kts | 114° |
| 2026-04-30 19:38 | 54.80808 | 53.57798 | 41105 ft | 483 kts | 114° |
| 2026-04-30 19:39 | 54.78545 | 53.68760 | 41110 ft | 483 kts | 114° |
| 2026-04-30 19:39 | 54.76272 | 53.79711 | 41094 ft | 483 kts | 115° |
| 2026-04-30 19:40 | 54.73992 | 53.90638 | 41103 ft | 483 kts | 115° |
| 2026-04-30 19:40 | 54.71703 | 54.01552 | 41092 ft | 483 kts | 115° |
| 2026-04-30 19:41 | 54.69403 | 54.12456 | 41091 ft | 483 kts | 115° |
| 2026-04-30 19:41 | 54.67093 | 54.23347 | 41091 ft | 483 kts | 115° |
| 2026-04-30 19:42 | 54.64770 | 54.34245 | 41083 ft | 483 kts | 115° |
| 2026-04-30 19:42 | 54.62442 | 54.45107 | 41084 ft | 482 kts | 115° |
| 2026-04-30 19:43 | 54.60107 | 54.55945 | 41083 ft | 482 kts | 115° |
| 2026-04-30 19:44 | 54.56588 | 54.72168 | 41086 ft | 482 kts | 115° |
| 2026-04-30 19:44 | 54.54227 | 54.82978 | 41086 ft | 482 kts | 116° |
| 2026-04-30 19:45 | 54.51859 | 54.93768 | 41081 ft | 482 kts | 116° |
| 2026-04-30 19:45 | 54.49479 | 55.04557 | 41076 ft | 482 kts | 116° |
| 2026-04-30 19:46 | 54.47090 | 55.15331 | 41072 ft | 482 kts | 116° |
| 2026-04-30 19:46 | 54.44694 | 55.26078 | 41075 ft | 482 kts | 116° |
| 2026-04-30 19:47 | 54.42288 | 55.36817 | 41073 ft | 482 kts | 116° |
| 2026-04-30 19:47 | 54.39871 | 55.47547 | 41081 ft | 482 kts | 116° |
| 2026-04-30 19:48 | 54.37444 | 55.58267 | 41070 ft | 482 kts | 117° |
| 2026-04-30 19:48 | 54.35009 | 55.68970 | 41075 ft | 482 kts | 117° |
| 2026-04-30 19:49 | 54.32565 | 55.79658 | 41075 ft | 481 kts | 117° |
| 2026-04-30 19:49 | 54.28889 | 55.95633 | 41076 ft | 480 kts | 117° |
| 2026-04-30 19:50 | 54.26430 | 56.06252 | 41071 ft | 480 kts | 117° |
| 2026-04-30 19:50 | 54.23978 | 56.16788 | 41078 ft | 480 kts | 117° |
| 2026-04-30 19:51 | 54.21501 | 56.27377 | 41064 ft | 480 kts | 117° |
| 2026-04-30 19:51 | 54.18997 | 56.38030 | 41063 ft | 480 kts | 117° |
| 2026-04-30 19:52 | 54.16519 | 56.48527 | 41065 ft | 479 kts | 117° |
| 2026-04-30 19:52 | 54.14017 | 56.59068 | 41063 ft | 480 kts | 118° |
| 2026-04-30 19:53 | 54.11486 | 56.69678 | 41059 ft | 480 kts | 118° |
| 2026-04-30 19:53 | 54.08978 | 56.80138 | 41057 ft | 480 kts | 118° |
| 2026-04-30 19:54 | 54.06443 | 56.90667 | 41056 ft | 480 kts | 118° |
| 2026-04-30 19:54 | 54.03899 | 57.01180 | 41050 ft | 480 kts | 118° |
| 2026-04-30 19:55 | 54.01346 | 57.11676 | 41049 ft | 480 kts | 118° |
| 2026-04-30 19:55 | 53.98789 | 57.22147 | 41039 ft | 479 kts | 118° |
| 2026-04-30 19:56 | 53.96230 | 57.32572 | 41034 ft | 478 kts | 118° |
| 2026-04-30 19:56 | 53.93663 | 57.42976 | 41033 ft | 477 kts | 118° |
| 2026-04-30 19:57 | 53.91095 | 57.53336 | 41015 ft | 476 kts | 118° |
| 2026-04-30 19:57 | 53.88521 | 57.63677 | 41014 ft | 476 kts | 119° |
| 2026-04-30 19:58 | 53.85941 | 57.73988 | 41015 ft | 475 kts | 119° |
| 2026-04-30 19:58 | 53.83352 | 57.84289 | 41012 ft | 475 kts | 119° |
| 2026-04-30 19:59 | 53.80757 | 57.94567 | 41012 ft | 475 kts | 119° |
| 2026-04-30 20:00 | 53.76848 | 58.09973 | 41011 ft | 475 kts | 119° |
| 2026-04-30 20:00 | 53.74324 | 58.20283 | 41002 ft | 477 kts | 117° |
| 2026-04-30 20:01 | 53.70853 | 58.36067 | 41000 ft | 479 kts | 116° |
| 2026-04-30 20:01 | 53.68514 | 58.46586 | 41002 ft | 478 kts | 116° |
| 2026-04-30 20:02 | 53.65357 | 58.60516 | 41001 ft | 477 kts | 117° |
| 2026-04-30 20:03 | 53.61756 | 58.76238 | 41000 ft | 477 kts | 117° |
| 2026-04-30 20:03 | 53.59374 | 58.86581 | 40992 ft | 477 kts | 117° |
| 2026-04-30 20:04 | 53.56964 | 58.97000 | 40992 ft | 477 kts | 117° |
| 2026-04-30 20:05 | 53.53335 | 59.12593 | 40989 ft | 477 kts | 117° |
| 2026-04-30 20:05 | 53.49688 | 59.28152 | 40999 ft | 477 kts | 117° |
| 2026-04-30 20:06 | 53.47245 | 59.38513 | 41002 ft | 477 kts | 117° |
| 2026-04-30 20:06 | 53.44793 | 59.48868 | 41000 ft | 478 kts | 117° |
| 2026-04-30 20:07 | 53.42369 | 59.59255 | 40999 ft | 481 kts | 114° |
| 2026-04-30 20:07 | 53.40960 | 59.70312 | 41009 ft | 491 kts | 101° |
| 2026-04-30 20:08 | 53.40772 | 59.76049 | 40996 ft | 496 kts | 96° |
| 2026-04-30 20:08 | 53.40811 | 59.87612 | 40978 ft | 497 kts | 94° |
| 2026-04-30 20:09 | 53.40875 | 59.99181 | 40973 ft | 496 kts | 95° |
| 2026-04-30 20:09 | 53.40870 | 60.16517 | 40972 ft | 495 kts | 95° |
| 2026-04-30 20:10 | 53.40807 | 60.33822 | 40963 ft | 495 kts | 95° |
| 2026-04-30 20:11 | 53.40724 | 60.51123 | 40961 ft | 495 kts | 96° |
| 2026-04-30 20:11 | 53.40656 | 60.62661 | 40964 ft | 495 kts | 96° |
| 2026-04-30 20:12 | 53.40532 | 60.79966 | 40963 ft | 495 kts | 96° |
| 2026-04-30 20:13 | 53.40437 | 60.91496 | 40962 ft | 495 kts | 96° |
| 2026-04-30 20:13 | 53.40331 | 61.03021 | 40962 ft | 495 kts | 96° |
| 2026-04-30 20:14 | 53.40204 | 61.14545 | 40959 ft | 494 kts | 97° |
| 2026-04-30 20:14 | 53.39480 | 61.25905 | 40958 ft | 489 kts | 103° |
| 2026-04-30 20:15 | 53.38523 | 61.37108 | 40954 ft | 489 kts | 103° |
| 2026-04-30 20:15 | 53.37562 | 61.48466 | 40953 ft | 490 kts | 103° |
| 2026-04-30 20:16 | 53.36631 | 61.59697 | 40954 ft | 490 kts | 103° |
| 2026-04-30 20:16 | 53.35687 | 61.71070 | 40949 ft | 490 kts | 103° |
| 2026-04-30 20:17 | 53.34742 | 61.82308 | 40945 ft | 491 kts | 103° |
| 2026-04-30 20:17 | 53.33780 | 61.93599 | 40944 ft | 490 kts | 103° |
| 2026-04-30 20:18 | 53.32807 | 62.04888 | 40943 ft | 490 kts | 104° |
| 2026-04-30 20:18 | 53.31822 | 62.16186 | 40934 ft | 491 kts | 104° |
| 2026-04-30 20:19 | 53.30827 | 62.27468 | 40936 ft | 490 kts | 104° |
| 2026-04-30 20:19 | 53.29823 | 62.38740 | 40933 ft | 490 kts | 104° |
| 2026-04-30 20:20 | 53.28809 | 62.50008 | 40924 ft | 490 kts | 104° |
| 2026-04-30 20:20 | 53.27782 | 62.61272 | 40929 ft | 490 kts | 104° |
| 2026-04-30 20:21 | 53.26746 | 62.72525 | 40927 ft | 490 kts | 104° |
| 2026-04-30 20:21 | 53.25702 | 62.83766 | 40921 ft | 490 kts | 104° |
| 2026-04-30 20:22 | 53.24648 | 62.95000 | 40915 ft | 489 kts | 104° |
| 2026-04-30 20:22 | 53.23583 | 63.06220 | 40915 ft | 489 kts | 104° |
| 2026-04-30 20:23 | 53.22510 | 63.17423 | 40919 ft | 489 kts | 104° |
| 2026-04-30 20:23 | 53.21424 | 63.28636 | 40916 ft | 489 kts | 105° |
| 2026-04-30 20:24 | 53.20330 | 63.39834 | 40918 ft | 489 kts | 105° |
| 2026-04-30 20:24 | 53.19225 | 63.51031 | 40917 ft | 489 kts | 105° |
| 2026-04-30 20:25 | 53.16369 | 63.67098 | 40922 ft | 479 kts | 117° |
| 2026-04-30 20:26 | 53.12766 | 63.82648 | 40917 ft | 480 kts | 117° |
| 2026-04-30 20:26 | 53.09200 | 63.98238 | 40918 ft | 481 kts | 117° |
| 2026-04-30 20:27 | 53.04435 | 64.19022 | 40916 ft | 481 kts | 117° |
| 2026-04-30 20:28 | 52.99628 | 64.39761 | 40916 ft | 481 kts | 117° |
| 2026-04-30 20:30 | 52.93588 | 64.65545 | 40917 ft | 481 kts | 117° |
| 2026-04-30 20:31 | 52.86251 | 64.96451 | 40917 ft | 481 kts | 117° |
| 2026-04-30 20:32 | 52.80076 | 65.22131 | 40918 ft | 481 kts | 118° |
| 2026-04-30 20:33 | 52.76215 | 65.37403 | 40925 ft | 480 kts | 118° |
| 2026-04-30 20:34 | 52.72399 | 65.52703 | 40925 ft | 481 kts | 117° |
| 2026-04-30 20:35 | 52.68654 | 65.68058 | 40927 ft | 481 kts | 117° |
| 2026-04-30 20:35 | 52.64871 | 65.83384 | 40926 ft | 481 kts | 118° |
| 2026-04-30 20:36 | 52.62334 | 65.93581 | 40935 ft | 481 kts | 118° |
| 2026-04-30 20:37 | 52.58519 | 66.08833 | 40933 ft | 481 kts | 118° |
| 2026-04-30 20:37 | 52.55962 | 66.18996 | 40936 ft | 481 kts | 118° |
| 2026-04-30 20:38 | 52.53395 | 66.29154 | 40936 ft | 481 kts | 118° |
| 2026-04-30 20:38 | 52.50818 | 66.39307 | 40939 ft | 482 kts | 118° |
| 2026-04-30 20:39 | 52.46939 | 66.54500 | 40945 ft | 481 kts | 118° |
| 2026-04-30 20:40 | 52.43059 | 66.69609 | 40945 ft | 481 kts | 118° |
| 2026-04-30 20:40 | 52.40434 | 66.79694 | 40956 ft | 481 kts | 118° |
| 2026-04-30 20:41 | 52.36407 | 66.94743 | 40953 ft | 481 kts | 119° |
| 2026-04-30 20:41 | 52.33718 | 67.04755 | 40965 ft | 481 kts | 118° |
| 2026-04-30 20:42 | 52.31028 | 67.14750 | 40961 ft | 480 kts | 118° |
| 2026-04-30 20:43 | 52.26981 | 67.29714 | 40970 ft | 480 kts | 118° |
| 2026-04-30 20:43 | 52.24271 | 67.39679 | 40961 ft | 480 kts | 118° |
| 2026-04-30 20:44 | 52.20203 | 67.54567 | 40963 ft | 479 kts | 118° |
| 2026-04-30 20:45 | 52.14738 | 67.74344 | 40970 ft | 478 kts | 118° |
| 2026-04-30 20:45 | 52.11996 | 67.84202 | 40971 ft | 478 kts | 118° |
| 2026-04-30 20:46 | 52.06501 | 68.03853 | 40973 ft | 477 kts | 119° |
| 2026-04-30 20:47 | 52.02827 | 68.16900 | 40973 ft | 477 kts | 119° |
| 2026-04-30 20:48 | 51.98670 | 68.31583 | 40971 ft | 477 kts | 119° |
| 2026-04-30 20:48 | 51.95852 | 68.41324 | 40974 ft | 477 kts | 120° |
| 2026-04-30 20:49 | 51.92903 | 68.50940 | 40976 ft | 477 kts | 121° |
| 2026-04-30 20:50 | 51.88443 | 68.65336 | 40973 ft | 477 kts | 120° |
| 2026-04-30 20:50 | 51.85479 | 68.74932 | 40970 ft | 477 kts | 120° |
| 2026-04-30 20:51 | 51.82512 | 68.84521 | 40971 ft | 477 kts | 120° |
| 2026-04-30 20:51 | 51.78043 | 68.98891 | 40973 ft | 477 kts | 120° |
| 2026-04-30 20:52 | 51.75071 | 69.08396 | 40975 ft | 477 kts | 120° |
| 2026-04-30 20:53 | 51.70570 | 69.22725 | 40967 ft | 477 kts | 120° |
| 2026-04-30 20:53 | 51.67560 | 69.32260 | 40978 ft | 477 kts | 120° |
| 2026-04-30 20:54 | 51.63033 | 69.46531 | 40983 ft | 477 kts | 121° |
| 2026-04-30 20:55 | 51.58484 | 69.60789 | 40983 ft | 478 kts | 121° |
| 2026-04-30 20:55 | 51.55441 | 69.70284 | 40976 ft | 478 kts | 121° |
| 2026-04-30 20:56 | 51.52467 | 69.79541 | 40950 ft | 453 kts | 121° |
| 2026-04-30 20:56 | 51.51043 | 69.83963 | 40952 ft | 439 kts | 121° |
| 2026-04-30 20:56 | 51.48310 | 69.92415 | 40729 ft | 420 kts | 121° |
| 2026-04-30 20:57 | 51.46980 | 69.96615 | 39953 ft | 428 kts | 120° |
| 2026-04-30 20:57 | 51.45631 | 70.00942 | 39005 ft | 439 kts | 120° |
| 2026-04-30 20:57 | 51.44264 | 70.05357 | 38351 ft | 443 kts | 119° |
| 2026-04-30 20:58 | 51.41526 | 70.14210 | 37185 ft | 444 kts | 119° |
| 2026-04-30 20:58 | 51.40152 | 70.18627 | 36695 ft | 442 kts | 120° |
| 2026-04-30 20:58 | 51.38785 | 70.23008 | 36282 ft | 437 kts | 119° |
| 2026-04-30 20:58 | 51.37431 | 70.27333 | 35865 ft | 434 kts | 119° |
| 2026-04-30 20:59 | 51.34759 | 70.35839 | 34387 ft | 416 kts | 119° |
| 2026-04-30 20:59 | 51.33468 | 70.39941 | 33216 ft | 409 kts | 119° |
| 2026-04-30 21:00 | 51.30931 | 70.47968 | 30663 ft | 400 kts | 120° |
| 2026-04-30 21:00 | 51.28453 | 70.55785 | 28318 ft | 387 kts | 120° |
| 2026-04-30 21:01 | 51.26064 | 70.63297 | 26118 ft | 372 kts | 120° |
| 2026-04-30 21:01 | 51.24902 | 70.66945 | 25027 ft | 366 kts | 120° |
| 2026-04-30 21:01 | 51.22631 | 70.74056 | 22886 ft | 353 kts | 120° |
| 2026-04-30 21:02 | 51.21524 | 70.77511 | 21837 ft | 347 kts | 120° |
| 2026-04-30 21:02 | 51.20515 | 70.80980 | 20787 ft | 344 kts | 112° |
| 2026-04-30 21:02 | 51.19945 | 70.84673 | 19734 ft | 342 kts | 102° |
| 2026-04-30 21:02 | 51.19709 | 70.88426 | 18718 ft | 339 kts | 95° |
| 2026-04-30 21:03 | 51.19656 | 70.92151 | 17700 ft | 334 kts | 94° |
| 2026-04-30 21:03 | 51.19624 | 70.95830 | 16698 ft | 329 kts | 94° |
| 2026-04-30 21:03 | 51.19593 | 70.99417 | 16093 ft | 311 kts | 94° |
| 2026-04-30 21:03 | 51.19529 | 71.02746 | 15491 ft | 294 kts | 98° |
| 2026-04-30 21:04 | 51.19338 | 71.05960 | 14583 ft | 290 kts | 99° |
| 2026-04-30 21:04 | 51.19111 | 71.09143 | 13592 ft | 288 kts | 100° |
| 2026-04-30 21:04 | 51.18655 | 71.15475 | 11602 ft | 286 kts | 99° |
| 2026-04-30 21:05 | 51.18439 | 71.18609 | 10704 ft | 284 kts | 99° |
| 2026-04-30 21:05 | 51.18226 | 71.21742 | 10294 ft | 286 kts | 99° |
| 2026-04-30 21:05 | 51.18014 | 71.24874 | 10108 ft | 283 kts | 99° |
| 2026-04-30 21:05 | 51.17808 | 71.27941 | 9828 ft | 279 kts | 99° |
| 2026-04-30 21:06 | 51.17605 | 71.31028 | 9058 ft | 274 kts | 99° |
| 2026-04-30 21:06 | 51.17405 | 71.34030 | 8119 ft | 271 kts | 99° |
| 2026-04-30 21:06 | 51.17211 | 71.36957 | 7248 ft | 267 kts | 99° |
| 2026-04-30 21:06 | 51.17018 | 71.39864 | 6400 ft | 261 kts | 99° |
| 2026-04-30 21:07 | 51.16824 | 71.42712 | 5544 ft | 256 kts | 100° |
| 2026-04-30 21:07 | 51.16634 | 71.45503 | 5146 ft | 249 kts | 100° |
| 2026-04-30 21:07 | 51.16456 | 71.48157 | 4974 ft | 231 kts | 99° |
| 2026-04-30 21:07 | 51.16292 | 71.50599 | 4852 ft | 213 kts | 100° |
| 2026-04-30 21:08 | 51.16142 | 71.52852 | 4744 ft | 196 kts | 100° |
| 2026-04-30 21:08 | 51.16001 | 71.54912 | 4657 ft | 181 kts | 101° |
| 2026-04-30 21:08 | 51.15866 | 71.56881 | 4623 ft | 177 kts | 101° |
| 2026-04-30 21:08 | 51.15727 | 71.58855 | 4568 ft | 181 kts | 102° |
| 2026-04-30 21:09 | 51.15455 | 71.60795 | 4392 ft | 178 kts | 123° |
| 2026-04-30 21:09 | 51.14605 | 71.62089 | 4231 ft | 167 kts | 153° |
| 2026-04-30 21:09 | 51.13493 | 71.62398 | 3998 ft | 167 kts | 191° |
| 2026-04-30 21:09 | 51.12454 | 71.61573 | 3876 ft | 168 kts | 206° |
| 2026-04-30 21:10 | 51.11453 | 71.60506 | 3523 ft | 173 kts | 212° |
| 2026-04-30 21:10 | 51.10525 | 71.59349 | 3413 ft | 170 kts | 213° |
| 2026-04-30 21:10 | 51.09615 | 71.58108 | 2950 ft | 171 kts | 217° |
| 2026-04-30 21:10 | 51.08764 | 71.56804 | 2694 ft | 170 kts | 219° |
| 2026-04-30 21:11 | 51.07975 | 71.55564 | 2531 ft | 146 kts | 220° |
| 2026-04-30 21:11 | 51.07286 | 71.54483 | 2434 ft | 136 kts | 222° |
| 2026-04-30 21:11 | 51.06638 | 71.53417 | 2145 ft | 131 kts | 225° |
| 2026-04-30 21:11 | 51.06006 | 71.52394 | 1947 ft | 130 kts | 223° |
| 2026-04-30 21:12 | 51.05329 | 71.51440 | 1803 ft | 130 kts | 220° |
| 2026-04-30 21:12 | 51.04690 | 71.50412 | 1653 ft | 131 kts | 225° |
| 2026-04-30 21:12 | 51.04039 | 71.49412 | 1441 ft | 129 kts | 222° |
| 2026-04-30 21:12 | 51.03410 | 71.48412 | 1233 ft | 129 kts | 223° |
| 2026-04-30 21:13 | 51.02791 | 71.47455 | 1171 ft | 113 kts | 222° |
| 2026-04-30 21:13 | 51.02316 | 71.46722 | 1170 ft | 72 kts | 223° |
| 2026-04-30 21:13 | 51.02018 | 71.46260 | 1167 ft | 55 kts | 225° |
| 2026-04-30 21:13 | 51.01769 | 71.45858 | 1168 ft | 49 kts | 225° |
| 2026-04-30 21:14 | 51.01729 | 71.45597 | 1164 ft | 20 kts | 312° |
| 2026-04-30 21:14 | 51.01850 | 71.45534 | 1166 ft | 20 kts | 23° |
| 2026-04-30 21:14 | 51.01954 | 71.45685 | 1168 ft | 20 kts | 46° |
| 2026-04-30 21:14 | 51.02056 | 71.45843 | 1167 ft | 20 kts | 44° |
| 2026-04-30 21:15 | 51.02157 | 71.46000 | 1168 ft | 20 kts | 44° |
| 2026-04-30 21:15 | 51.02258 | 71.46159 | 1165 ft | 20 kts | 45° |
| 2026-04-30 21:15 | 51.02359 | 71.46319 | 1166 ft | 20 kts | 45° |
| 2026-04-30 21:15 | 51.02462 | 71.46474 | 1167 ft | 20 kts | 43° |
| 2026-04-30 21:16 | 51.02565 | 71.46628 | 1167 ft | 20 kts | 43° |
| 2026-04-30 21:16 | 51.02668 | 71.46783 | 1167 ft | 20 kts | 44° |
| 2026-04-30 21:16 | 51.02763 | 71.46950 | 1166 ft | 20 kts | 47° |
| 2026-04-30 21:16 | 51.02866 | 71.47106 | 1168 ft | 20 kts | 45° |
| 2026-04-30 21:17 | 51.02967 | 71.47265 | 1165 ft | 20 kts | 45° |
| 2026-04-30 21:17 | 51.03068 | 71.47422 | 1168 ft | 20 kts | 44° |
| 2026-04-30 21:17 | 51.03171 | 71.47578 | 1165 ft | 20 kts | 44° |
| 2026-04-30 21:17 | 51.03292 | 71.47603 | 1164 ft | 20 kts | 321° |
| 2026-04-30 21:18 | 51.03414 | 71.47571 | 1163 ft | 12 kts | 38° |
| 2026-04-30 21:18 | 51.03435 | 71.47601 | 1165 ft | 1 kts | 42° |
| 2026-04-30 21:18 | 51.03440 | 71.47608 | 1170 ft | 1 kts | 43° |
| 2026-04-30 21:18 | 51.03440 | 71.47609 | 1170 ft | 0 kts | 43° |